sensor_id;sensor_type;location;lat;lon;timestamp;pressure;altitude;pressure_sealevel;temperature
19948;BMP180;10135;50.702;7.276;2022-08-19T00:01:20;99187.00;;;23.80
19948;BMP180;10135;50.702;7.276;2022-08-19T00:03:21;99182.00;;;23.80
19948;BMP180;10135;50.702;7.276;2022-08-19T00:05:22;99189.00;;;23.80
19948;BMP180;10135;50.702;7.276;2022-08-19T00:07:23;99185.00;;;23.80
19948;BMP180;10135;50.702;7.276;2022-08-19T00:09:24;99191.00;;;23.70
19948;BMP180;10135;50.702;7.276;2022-08-19T00:11:26;99196.00;;;23.70
19948;BMP180;10135;50.702;7.276;2022-08-19T00:13:28;99201.00;;;23.70
19948;BMP180;10135;50.702;7.276;2022-08-19T00:15:29;99201.00;;;23.70
19948;BMP180;10135;50.702;7.276;2022-08-19T00:17:29;99209.00;;;23.70
19948;BMP180;10135;50.702;7.276;2022-08-19T00:19:31;99205.00;;;23.60
19948;BMP180;10135;50.702;7.276;2022-08-19T00:21:31;99214.00;;;23.60
19948;BMP180;10135;50.702;7.276;2022-08-19T00:23:32;99206.00;;;23.60
19948;BMP180;10135;50.702;7.276;2022-08-19T00:25:35;99211.00;;;23.60
19948;BMP180;10135;50.702;7.276;2022-08-19T00:27:37;99209.00;;;23.50
19948;BMP180;10135;50.702;7.276;2022-08-19T00:29:38;99212.00;;;23.50
19948;BMP180;10135;50.702;7.276;2022-08-19T00:31:39;99211.00;;;23.50
19948;BMP180;10135;50.702;7.276;2022-08-19T00:33:42;99215.00;;;23.50
19948;BMP180;10135;50.702;7.276;2022-08-19T00:35:43;99217.00;;;23.50
19948;BMP180;10135;50.702;7.276;2022-08-19T00:37:44;99218.00;;;23.50
19948;BMP180;10135;50.702;7.276;2022-08-19T00:39:45;99225.00;;;23.50
19948;BMP180;10135;50.702;7.276;2022-08-19T00:41:50;99223.00;;;23.40
19948;BMP180;10135;50.702;7.276;2022-08-19T00:44:03;99223.00;;;23.40
19948;BMP180;10135;50.702;7.276;2022-08-19T00:46:05;99211.00;;;23.40
19948;BMP180;10135;50.702;7.276;2022-08-19T00:48:05;99211.00;;;23.40
19948;BMP180;10135;50.702;7.276;2022-08-19T00:50:10;99210.00;;;23.40
19948;BMP180;10135;50.702;7.276;2022-08-19T00:52:17;99210.00;;;23.40
19948;BMP180;10135;50.702;7.276;2022-08-19T00:54:20;99213.00;;;23.40
19948;BMP180;10135;50.702;7.276;2022-08-19T00:56:21;99218.00;;;23.40
19948;BMP180;10135;50.702;7.276;2022-08-19T00:58:28;99218.00;;;23.40
19948;BMP180;10135;50.702;7.276;2022-08-19T01:00:30;99217.00;;;23.40
19948;BMP180;10135;50.702;7.276;2022-08-19T01:02:32;99209.00;;;23.40
19948;BMP180;10135;50.702;7.276;2022-08-19T01:04:33;99207.00;;;23.40
19948;BMP180;10135;50.702;7.276;2022-08-19T01:06:36;99203.00;;;23.40
19948;BMP180;10135;50.702;7.276;2022-08-19T01:08:38;99203.00;;;23.40
19948;BMP180;10135;50.702;7.276;2022-08-19T01:10:56;99203.00;;;23.30
19948;BMP180;10135;50.702;7.276;2022-08-19T01:13:00;99195.00;;;23.40
19948;BMP180;10135;50.702;7.276;2022-08-19T01:15:01;99192.00;;;23.40
19948;BMP180;10135;50.702;7.276;2022-08-19T01:17:03;99186.00;;;23.30
19948;BMP180;10135;50.702;7.276;2022-08-19T01:19:17;99183.00;;;23.30
19948;BMP180;10135;50.702;7.276;2022-08-19T01:21:46;99184.00;;;23.30
19948;BMP180;10135;50.702;7.276;2022-08-19T01:23:49;99179.00;;;23.30
19948;BMP180;10135;50.702;7.276;2022-08-19T01:25:52;99183.00;;;23.30
19948;BMP180;10135;50.702;7.276;2022-08-19T01:27:54;99178.00;;;23.30
19948;BMP180;10135;50.702;7.276;2022-08-19T01:29:54;99183.00;;;23.20
19948;BMP180;10135;50.702;7.276;2022-08-19T01:31:55;99185.00;;;23.20
19948;BMP180;10135;50.702;7.276;2022-08-19T01:33:57;99185.00;;;23.20
19948;BMP180;10135;50.702;7.276;2022-08-19T01:36:14;99200.00;;;23.20
19948;BMP180;10135;50.702;7.276;2022-08-19T01:38:26;99192.00;;;23.20
19948;BMP180;10135;50.702;7.276;2022-08-19T01:40:31;99195.00;;;23.20
19948;BMP180;10135;50.702;7.276;2022-08-19T01:42:33;99199.00;;;23.10
19948;BMP180;10135;50.702;7.276;2022-08-19T01:44:33;99202.00;;;23.20
19948;BMP180;10135;50.702;7.276;2022-08-19T01:46:37;99201.00;;;23.10
19948;BMP180;10135;50.702;7.276;2022-08-19T01:48:41;99197.00;;;23.10
19948;BMP180;10135;50.702;7.276;2022-08-19T01:50:42;99196.00;;;23.10
19948;BMP180;10135;50.702;7.276;2022-08-19T01:52:44;99201.00;;;23.10
19948;BMP180;10135;50.702;7.276;2022-08-19T01:54:45;99200.00;;;23.10
19948;BMP180;10135;50.702;7.276;2022-08-19T01:56:45;99195.00;;;23.10
19948;BMP180;10135;50.702;7.276;2022-08-19T01:59:04;99194.00;;;23.00
19948;BMP180;10135;50.702;7.276;2022-08-19T02:01:07;99191.00;;;23.10
19948;BMP180;10135;50.702;7.276;2022-08-19T02:03:08;99189.00;;;23.00
19948;BMP180;10135;50.702;7.276;2022-08-19T02:05:11;99189.00;;;23.00
19948;BMP180;10135;50.702;7.276;2022-08-19T02:07:12;99188.00;;;23.00
19948;BMP180;10135;50.702;7.276;2022-08-19T02:09:13;99192.00;;;23.00
19948;BMP180;10135;50.702;7.276;2022-08-19T02:11:31;99187.00;;;23.00
19948;BMP180;10135;50.702;7.276;2022-08-19T02:13:33;99188.00;;;23.00
19948;BMP180;10135;50.702;7.276;2022-08-19T02:15:34;99190.00;;;23.00
19948;BMP180;10135;50.702;7.276;2022-08-19T02:17:35;99185.00;;;23.00
19948;BMP180;10135;50.702;7.276;2022-08-19T02:19:36;99180.00;;;23.00
19948;BMP180;10135;50.702;7.276;2022-08-19T02:21:36;99180.00;;;23.00
19948;BMP180;10135;50.702;7.276;2022-08-19T02:23:37;99181.00;;;23.00
19948;BMP180;10135;50.702;7.276;2022-08-19T02:25:39;99190.00;;;23.00
19948;BMP180;10135;50.702;7.276;2022-08-19T02:27:41;99184.00;;;23.00
19948;BMP180;10135;50.702;7.276;2022-08-19T02:29:43;99183.00;;;23.00
19948;BMP180;10135;50.702;7.276;2022-08-19T02:31:46;99189.00;;;23.00
19948;BMP180;10135;50.702;7.276;2022-08-19T02:33:47;99188.00;;;23.00
19948;BMP180;10135;50.702;7.276;2022-08-19T02:35:48;99202.00;;;23.00
19948;BMP180;10135;50.702;7.276;2022-08-19T02:37:49;99201.00;;;22.90
19948;BMP180;10135;50.702;7.276;2022-08-19T02:40:09;99204.00;;;22.90
19948;BMP180;10135;50.702;7.276;2022-08-19T02:42:10;99197.00;;;22.90
19948;BMP180;10135;50.702;7.276;2022-08-19T02:44:10;99196.00;;;22.90
19948;BMP180;10135;50.702;7.276;2022-08-19T02:46:26;99202.00;;;22.80
19948;BMP180;10135;50.702;7.276;2022-08-19T02:48:27;99201.00;;;22.90
19948;BMP180;10135;50.702;7.276;2022-08-19T02:50:28;99198.00;;;22.90
19948;BMP180;10135;50.702;7.276;2022-08-19T02:52:29;99194.00;;;22.80
19948;BMP180;10135;50.702;7.276;2022-08-19T02:54:29;99192.00;;;22.80
19948;BMP180;10135;50.702;7.276;2022-08-19T02:56:31;99194.00;;;22.80
19948;BMP180;10135;50.702;7.276;2022-08-19T02:58:32;99185.00;;;22.80
19948;BMP180;10135;50.702;7.276;2022-08-19T03:00:32;99190.00;;;22.80
19948;BMP180;10135;50.702;7.276;2022-08-19T03:02:33;99197.00;;;22.80
19948;BMP180;10135;50.702;7.276;2022-08-19T03:04:34;99193.00;;;22.80
19948;BMP180;10135;50.702;7.276;2022-08-19T03:06:40;99198.00;;;22.80
19948;BMP180;10135;50.702;7.276;2022-08-19T03:08:44;99195.00;;;22.80
19948;BMP180;10135;50.702;7.276;2022-08-19T03:10:47;99195.00;;;22.80
19948;BMP180;10135;50.702;7.276;2022-08-19T03:12:48;99203.00;;;22.80
19948;BMP180;10135;50.702;7.276;2022-08-19T03:14:48;99194.00;;;22.80
19948;BMP180;10135;50.702;7.276;2022-08-19T03:16:52;99189.00;;;22.70
19948;BMP180;10135;50.702;7.276;2022-08-19T03:18:53;99185.00;;;22.70
19948;BMP180;10135;50.702;7.276;2022-08-19T03:20:55;99194.00;;;22.70
19948;BMP180;10135;50.702;7.276;2022-08-19T03:22:56;99203.00;;;22.70
19948;BMP180;10135;50.702;7.276;2022-08-19T03:24:58;99208.00;;;22.70
19948;BMP180;10135;50.702;7.276;2022-08-19T03:26:59;99209.00;;;22.70
19948;BMP180;10135;50.702;7.276;2022-08-19T03:29:05;99209.00;;;22.70
19948;BMP180;10135;50.702;7.276;2022-08-19T03:31:12;99211.00;;;22.70
19948;BMP180;10135;50.702;7.276;2022-08-19T03:33:13;99213.00;;;22.70
19948;BMP180;10135;50.702;7.276;2022-08-19T03:35:13;99210.00;;;22.70
19948;BMP180;10135;50.702;7.276;2022-08-19T03:37:14;99210.00;;;22.70
19948;BMP180;10135;50.702;7.276;2022-08-19T03:39:16;99208.00;;;22.70
19948;BMP180;10135;50.702;7.276;2022-08-19T03:41:22;99205.00;;;22.70
19948;BMP180;10135;50.702;7.276;2022-08-19T03:43:23;99202.00;;;22.70
19948;BMP180;10135;50.702;7.276;2022-08-19T03:45:24;99194.00;;;22.70
19948;BMP180;10135;50.702;7.276;2022-08-19T03:47:25;99199.00;;;22.60
19948;BMP180;10135;50.702;7.276;2022-08-19T03:49:29;99202.00;;;22.60
19948;BMP180;10135;50.702;7.276;2022-08-19T03:51:37;99205.00;;;22.60
19948;BMP180;10135;50.702;7.276;2022-08-19T03:53:38;99208.00;;;22.60
19948;BMP180;10135;50.702;7.276;2022-08-19T03:55:40;99210.00;;;22.60
19948;BMP180;10135;50.702;7.276;2022-08-19T03:57:41;99211.00;;;22.60
19948;BMP180;10135;50.702;7.276;2022-08-19T03:59:42;99216.00;;;22.60
19948;BMP180;10135;50.702;7.276;2022-08-19T04:01:43;99219.00;;;22.60
19948;BMP180;10135;50.702;7.276;2022-08-19T04:03:45;99221.00;;;22.60
19948;BMP180;10135;50.702;7.276;2022-08-19T04:05:47;99219.00;;;22.60
19948;BMP180;10135;50.702;7.276;2022-08-19T04:07:47;99228.00;;;22.60
19948;BMP180;10135;50.702;7.276;2022-08-19T04:09:48;99227.00;;;22.60
19948;BMP180;10135;50.702;7.276;2022-08-19T04:11:53;99219.00;;;22.60
19948;BMP180;10135;50.702;7.276;2022-08-19T04:13:55;99230.00;;;22.60
19948;BMP180;10135;50.702;7.276;2022-08-19T04:15:56;99224.00;;;22.60
19948;BMP180;10135;50.702;7.276;2022-08-19T04:17:57;99223.00;;;22.60
19948;BMP180;10135;50.702;7.276;2022-08-19T04:19:57;99222.00;;;22.60
19948;BMP180;10135;50.702;7.276;2022-08-19T04:21:58;99223.00;;;22.60
19948;BMP180;10135;50.702;7.276;2022-08-19T04:23:59;99223.00;;;22.50
19948;BMP180;10135;50.702;7.276;2022-08-19T04:26:00;99223.00;;;22.50
19948;BMP180;10135;50.702;7.276;2022-08-19T04:28:00;99223.00;;;22.50
19948;BMP180;10135;50.702;7.276;2022-08-19T04:30:02;99215.00;;;22.50
19948;BMP180;10135;50.702;7.276;2022-08-19T04:32:03;99227.00;;;22.50
19948;BMP180;10135;50.702;7.276;2022-08-19T04:34:09;99224.00;;;22.40
19948;BMP180;10135;50.702;7.276;2022-08-19T04:36:22;99221.00;;;22.40
19948;BMP180;10135;50.702;7.276;2022-08-19T04:38:23;99221.00;;;22.40
19948;BMP180;10135;50.702;7.276;2022-08-19T04:40:24;99226.00;;;22.40
19948;BMP180;10135;50.702;7.276;2022-08-19T04:42:44;99230.00;;;22.40
19948;BMP180;10135;50.702;7.276;2022-08-19T04:44:44;99222.00;;;22.40
19948;BMP180;10135;50.702;7.276;2022-08-19T04:46:48;99233.00;;;22.40
19948;BMP180;10135;50.702;7.276;2022-08-19T04:48:49;99236.00;;;22.40
19948;BMP180;10135;50.702;7.276;2022-08-19T04:50:49;99243.00;;;22.40
19948;BMP180;10135;50.702;7.276;2022-08-19T04:52:51;99235.00;;;22.40
19948;BMP180;10135;50.702;7.276;2022-08-19T04:54:53;99244.00;;;22.40
19948;BMP180;10135;50.702;7.276;2022-08-19T04:56:55;99250.00;;;22.40
19948;BMP180;10135;50.702;7.276;2022-08-19T04:58:56;99255.00;;;22.40
19948;BMP180;10135;50.702;7.276;2022-08-19T05:00:57;99248.00;;;22.40
19948;BMP180;10135;50.702;7.276;2022-08-19T05:03:00;99242.00;;;22.40
19948;BMP180;10135;50.702;7.276;2022-08-19T05:05:01;99249.00;;;22.50
19948;BMP180;10135;50.702;7.276;2022-08-19T05:07:02;99254.00;;;22.50
19948;BMP180;10135;50.702;7.276;2022-08-19T05:09:04;99255.00;;;22.50
19948;BMP180;10135;50.702;7.276;2022-08-19T05:11:28;99259.00;;;22.40
19948;BMP180;10135;50.702;7.276;2022-08-19T05:13:29;99259.00;;;22.50
19948;BMP180;10135;50.702;7.276;2022-08-19T05:15:30;99260.00;;;22.40
19948;BMP180;10135;50.702;7.276;2022-08-19T05:17:31;99254.00;;;22.40
19948;BMP180;10135;50.702;7.276;2022-08-19T05:19:32;99263.00;;;22.50
19948;BMP180;10135;50.702;7.276;2022-08-19T05:21:51;99264.00;;;22.50
19948;BMP180;10135;50.702;7.276;2022-08-19T05:24:12;99262.00;;;22.50
19948;BMP180;10135;50.702;7.276;2022-08-19T05:26:13;99270.00;;;22.50
19948;BMP180;10135;50.702;7.276;2022-08-19T05:28:13;99273.00;;;22.60
19948;BMP180;10135;50.702;7.276;2022-08-19T05:30:14;99271.00;;;22.60
19948;BMP180;10135;50.702;7.276;2022-08-19T05:32:15;99262.00;;;22.60
19948;BMP180;10135;50.702;7.276;2022-08-19T05:34:18;99262.00;;;22.70
19948;BMP180;10135;50.702;7.276;2022-08-19T05:36:22;99266.00;;;22.70
19948;BMP180;10135;50.702;7.276;2022-08-19T05:38:22;99267.00;;;22.80
19948;BMP180;10135;50.702;7.276;2022-08-19T05:40:23;99270.00;;;22.80
19948;BMP180;10135;50.702;7.276;2022-08-19T05:42:24;99267.00;;;22.80
19948;BMP180;10135;50.702;7.276;2022-08-19T05:44:30;99272.00;;;22.80
19948;BMP180;10135;50.702;7.276;2022-08-19T05:46:32;99277.00;;;22.90
19948;BMP180;10135;50.702;7.276;2022-08-19T05:48:34;99281.00;;;22.90
19948;BMP180;10135;50.702;7.276;2022-08-19T05:50:36;99281.00;;;22.90
19948;BMP180;10135;50.702;7.276;2022-08-19T05:52:37;99279.00;;;22.90
19948;BMP180;10135;50.702;7.276;2022-08-19T05:54:40;99278.00;;;23.00
19948;BMP180;10135;50.702;7.276;2022-08-19T05:56:42;99277.00;;;23.00
19948;BMP180;10135;50.702;7.276;2022-08-19T05:58:45;99274.00;;;23.00
19948;BMP180;10135;50.702;7.276;2022-08-19T06:00:45;99275.00;;;23.10
19948;BMP180;10135;50.702;7.276;2022-08-19T06:02:46;99274.00;;;23.10
19948;BMP180;10135;50.702;7.276;2022-08-19T06:04:47;99277.00;;;23.20
19948;BMP180;10135;50.702;7.276;2022-08-19T06:06:51;99271.00;;;23.20
19948;BMP180;10135;50.702;7.276;2022-08-19T06:08:52;99275.00;;;23.20
19948;BMP180;10135;50.702;7.276;2022-08-19T06:10:53;99281.00;;;23.30
19948;BMP180;10135;50.702;7.276;2022-08-19T06:12:54;99279.00;;;23.30
19948;BMP180;10135;50.702;7.276;2022-08-19T06:14:56;99282.00;;;23.30
19948;BMP180;10135;50.702;7.276;2022-08-19T06:16:58;99280.00;;;23.30
19948;BMP180;10135;50.702;7.276;2022-08-19T06:19:13;99282.00;;;23.30
19948;BMP180;10135;50.702;7.276;2022-08-19T06:21:14;99284.00;;;23.30
19948;BMP180;10135;50.702;7.276;2022-08-19T06:23:15;99280.00;;;23.30
19948;BMP180;10135;50.702;7.276;2022-08-19T06:25:17;99283.00;;;23.40
19948;BMP180;10135;50.702;7.276;2022-08-19T06:27:18;99283.00;;;23.30
19948;BMP180;10135;50.702;7.276;2022-08-19T06:29:24;99285.00;;;23.40
19948;BMP180;10135;50.702;7.276;2022-08-19T06:31:28;99289.00;;;23.40
19948;BMP180;10135;50.702;7.276;2022-08-19T06:33:29;99290.00;;;23.40
19948;BMP180;10135;50.702;7.276;2022-08-19T06:35:30;99291.00;;;23.40
19948;BMP180;10135;50.702;7.276;2022-08-19T06:37:30;99290.00;;;23.40
19948;BMP180;10135;50.702;7.276;2022-08-19T06:39:37;99288.00;;;23.40
19948;BMP180;10135;50.702;7.276;2022-08-19T06:41:43;99283.00;;;23.50
19948;BMP180;10135;50.702;7.276;2022-08-19T06:43:44;99285.00;;;23.50
19948;BMP180;10135;50.702;7.276;2022-08-19T06:45:44;99286.00;;;23.50
19948;BMP180;10135;50.702;7.276;2022-08-19T06:47:46;99287.00;;;23.50
19948;BMP180;10135;50.702;7.276;2022-08-19T06:49:48;99288.00;;;23.50
19948;BMP180;10135;50.702;7.276;2022-08-19T06:51:50;99289.00;;;23.60
19948;BMP180;10135;50.702;7.276;2022-08-19T06:53:54;99291.00;;;23.60
19948;BMP180;10135;50.702;7.276;2022-08-19T06:55:55;99299.00;;;23.60
19948;BMP180;10135;50.702;7.276;2022-08-19T06:58:04;99295.00;;;23.60
19948;BMP180;10135;50.702;7.276;2022-08-19T07:00:06;99317.00;;;23.60
19948;BMP180;10135;50.702;7.276;2022-08-19T07:02:10;99317.00;;;23.60
19948;BMP180;10135;50.702;7.276;2022-08-19T07:04:11;99310.00;;;23.60
19948;BMP180;10135;50.702;7.276;2022-08-19T07:06:16;99313.00;;;23.60
19948;BMP180;10135;50.702;7.276;2022-08-19T07:08:18;99320.00;;;23.70
19948;BMP180;10135;50.702;7.276;2022-08-19T07:10:19;99321.00;;;23.70
19948;BMP180;10135;50.702;7.276;2022-08-19T07:12:19;99321.00;;;23.70
19948;BMP180;10135;50.702;7.276;2022-08-19T07:14:25;99326.00;;;23.70
19948;BMP180;10135;50.702;7.276;2022-08-19T07:16:26;99323.00;;;23.70
19948;BMP180;10135;50.702;7.276;2022-08-19T07:18:28;99322.00;;;23.80
19948;BMP180;10135;50.702;7.276;2022-08-19T07:20:28;99324.00;;;23.80
19948;BMP180;10135;50.702;7.276;2022-08-19T07:22:29;99329.00;;;23.90
19948;BMP180;10135;50.702;7.276;2022-08-19T07:24:32;99328.00;;;23.90
19948;BMP180;10135;50.702;7.276;2022-08-19T07:26:40;99340.00;;;23.90
19948;BMP180;10135;50.702;7.276;2022-08-19T07:28:41;99342.00;;;24.00
19948;BMP180;10135;50.702;7.276;2022-08-19T07:30:43;99338.00;;;24.00
19948;BMP180;10135;50.702;7.276;2022-08-19T07:32:44;99341.00;;;24.10
19948;BMP180;10135;50.702;7.276;2022-08-19T07:34:44;99341.00;;;24.10
19948;BMP180;10135;50.702;7.276;2022-08-19T07:36:46;99342.00;;;24.10
19948;BMP180;10135;50.702;7.276;2022-08-19T07:38:49;99331.00;;;24.20
19948;BMP180;10135;50.702;7.276;2022-08-19T07:40:50;99336.00;;;24.20
19948;BMP180;10135;50.702;7.276;2022-08-19T07:42:51;99334.00;;;24.20
19948;BMP180;10135;50.702;7.276;2022-08-19T07:44:52;99327.00;;;24.30
19948;BMP180;10135;50.702;7.276;2022-08-19T07:46:56;99331.00;;;24.30
19948;BMP180;10135;50.702;7.276;2022-08-19T07:48:57;99336.00;;;24.40
19948;BMP180;10135;50.702;7.276;2022-08-19T07:51:03;99336.00;;;24.40
19948;BMP180;10135;50.702;7.276;2022-08-19T07:53:03;99333.00;;;24.40
19948;BMP180;10135;50.702;7.276;2022-08-19T07:55:07;99329.00;;;24.50
19948;BMP180;10135;50.702;7.276;2022-08-19T07:57:08;99330.00;;;24.50
19948;BMP180;10135;50.702;7.276;2022-08-19T07:59:09;99337.00;;;24.60
19948;BMP180;10135;50.702;7.276;2022-08-19T08:01:19;99334.00;;;24.60
19948;BMP180;10135;50.702;7.276;2022-08-19T08:03:21;99330.00;;;24.60
19948;BMP180;10135;50.702;7.276;2022-08-19T08:05:43;99342.00;;;24.70
19948;BMP180;10135;50.702;7.276;2022-08-19T08:08:03;99336.00;;;24.70
19948;BMP180;10135;50.702;7.276;2022-08-19T08:10:22;99342.00;;;24.80
19948;BMP180;10135;50.702;7.276;2022-08-19T08:12:28;99347.00;;;24.80
19948;BMP180;10135;50.702;7.276;2022-08-19T08:14:38;99343.00;;;24.80
19948;BMP180;10135;50.702;7.276;2022-08-19T08:16:39;99344.00;;;24.80
19948;BMP180;10135;50.702;7.276;2022-08-19T08:18:39;99345.00;;;24.80
19948;BMP180;10135;50.702;7.276;2022-08-19T08:20:42;99353.00;;;24.90
19948;BMP180;10135;50.702;7.276;2022-08-19T08:22:45;99345.00;;;24.90
19948;BMP180;10135;50.702;7.276;2022-08-19T08:25:14;99344.00;;;24.90
19948;BMP180;10135;50.702;7.276;2022-08-19T08:27:15;99347.00;;;25.00
19948;BMP180;10135;50.702;7.276;2022-08-19T08:29:16;99356.00;;;25.00
19948;BMP180;10135;50.702;7.276;2022-08-19T08:31:17;99353.00;;;25.00
19948;BMP180;10135;50.702;7.276;2022-08-19T08:33:23;99360.00;;;25.10
19948;BMP180;10135;50.702;7.276;2022-08-19T08:35:24;99352.00;;;25.10
19948;BMP180;10135;50.702;7.276;2022-08-19T08:37:25;99352.00;;;25.10
19948;BMP180;10135;50.702;7.276;2022-08-19T08:39:25;99355.00;;;25.10
19948;BMP180;10135;50.702;7.276;2022-08-19T08:44:03;99360.00;;;25.20
19948;BMP180;10135;50.702;7.276;2022-08-19T08:46:17;99355.00;;;25.20
19948;BMP180;10135;50.702;7.276;2022-08-19T08:48:54;99354.00;;;25.30
19948;BMP180;10135;50.702;7.276;2022-08-19T08:50:58;99356.00;;;25.30
19948;BMP180;10135;50.702;7.276;2022-08-19T08:52:59;99365.00;;;25.40
19948;BMP180;10135;50.702;7.276;2022-08-19T08:55:09;99363.00;;;25.40
19948;BMP180;10135;50.702;7.276;2022-08-19T08:57:30;99364.00;;;25.40
19948;BMP180;10135;50.702;7.276;2022-08-19T08:59:37;99359.00;;;25.50
19948;BMP180;10135;50.702;7.276;2022-08-19T09:01:39;99362.00;;;25.50
19948;BMP180;10135;50.702;7.276;2022-08-19T09:03:43;99356.00;;;25.50
19948;BMP180;10135;50.702;7.276;2022-08-19T09:06:37;99355.00;;;25.60
19948;BMP180;10135;50.702;7.276;2022-08-19T09:10:54;99353.00;;;25.70
19948;BMP180;10135;50.702;7.276;2022-08-19T09:13:17;99353.00;;;25.70
19948;BMP180;10135;50.702;7.276;2022-08-19T09:15:37;99351.00;;;25.70
19948;BMP180;10135;50.702;7.276;2022-08-19T09:17:40;99347.00;;;25.80
19948;BMP180;10135;50.702;7.276;2022-08-19T09:19:51;99349.00;;;25.80
19948;BMP180;10135;50.702;7.276;2022-08-19T09:21:52;99349.00;;;25.90
19948;BMP180;10135;50.702;7.276;2022-08-19T09:23:53;99348.00;;;25.90
19948;BMP180;10135;50.702;7.276;2022-08-19T09:25:54;99348.00;;;25.90
19948;BMP180;10135;50.702;7.276;2022-08-19T09:27:55;99347.00;;;26.00
19948;BMP180;10135;50.702;7.276;2022-08-19T09:29:57;99343.00;;;26.00
19948;BMP180;10135;50.702;7.276;2022-08-19T09:31:58;99350.00;;;26.00
19948;BMP180;10135;50.702;7.276;2022-08-19T09:33:59;99347.00;;;26.10
19948;BMP180;10135;50.702;7.276;2022-08-19T09:36:07;99345.00;;;26.10
19948;BMP180;10135;50.702;7.276;2022-08-19T09:38:08;99348.00;;;26.10
19948;BMP180;10135;50.702;7.276;2022-08-19T09:40:10;99357.00;;;26.20
19948;BMP180;10135;50.702;7.276;2022-08-19T09:42:11;99347.00;;;26.20
19948;BMP180;10135;50.702;7.276;2022-08-19T09:44:14;99347.00;;;26.30
19948;BMP180;10135;50.702;7.276;2022-08-19T09:46:14;99350.00;;;26.30
19948;BMP180;10135;50.702;7.276;2022-08-19T09:48:17;99351.00;;;26.40
19948;BMP180;10135;50.702;7.276;2022-08-19T09:50:18;99360.00;;;26.40
19948;BMP180;10135;50.702;7.276;2022-08-19T09:52:18;99357.00;;;26.40
19948;BMP180;10135;50.702;7.276;2022-08-19T09:54:19;99352.00;;;26.50
19948;BMP180;10135;50.702;7.276;2022-08-19T09:56:22;99347.00;;;26.50
19948;BMP180;10135;50.702;7.276;2022-08-19T09:58:22;99346.00;;;26.50
19948;BMP180;10135;50.702;7.276;2022-08-19T10:00:29;99342.00;;;26.50
19948;BMP180;10135;50.702;7.276;2022-08-19T10:02:31;99350.00;;;26.50
19948;BMP180;10135;50.702;7.276;2022-08-19T10:04:31;99347.00;;;26.50
19948;BMP180;10135;50.702;7.276;2022-08-19T10:06:51;99348.00;;;26.50
19948;BMP180;10135;50.702;7.276;2022-08-19T10:08:52;99356.00;;;26.50
19948;BMP180;10135;50.702;7.276;2022-08-19T10:10:54;99361.00;;;26.50
19948;BMP180;10135;50.702;7.276;2022-08-19T10:12:55;99356.00;;;26.50
19948;BMP180;10135;50.702;7.276;2022-08-19T10:14:56;99352.00;;;26.60
19948;BMP180;10135;50.702;7.276;2022-08-19T10:16:57;99358.00;;;26.60
19948;BMP180;10135;50.702;7.276;2022-08-19T10:18:58;99353.00;;;26.70
19948;BMP180;10135;50.702;7.276;2022-08-19T10:21:25;99346.00;;;26.70
19948;BMP180;10135;50.702;7.276;2022-08-19T10:23:27;99343.00;;;26.80
19948;BMP180;10135;50.702;7.276;2022-08-19T10:25:31;99341.00;;;26.80
19948;BMP180;10135;50.702;7.276;2022-08-19T10:27:34;99342.00;;;26.80
19948;BMP180;10135;50.702;7.276;2022-08-19T10:29:35;99330.00;;;26.90
19948;BMP180;10135;50.702;7.276;2022-08-19T10:31:36;99328.00;;;26.90
19948;BMP180;10135;50.702;7.276;2022-08-19T10:33:39;99327.00;;;26.90
19948;BMP180;10135;50.702;7.276;2022-08-19T10:35:39;99333.00;;;27.00
19948;BMP180;10135;50.702;7.276;2022-08-19T10:37:40;99333.00;;;27.10
19948;BMP180;10135;50.702;7.276;2022-08-19T10:39:41;99342.00;;;27.10
19948;BMP180;10135;50.702;7.276;2022-08-19T10:41:41;99339.00;;;27.20
19948;BMP180;10135;50.702;7.276;2022-08-19T10:43:44;99332.00;;;27.20
19948;BMP180;10135;50.702;7.276;2022-08-19T10:45:53;99335.00;;;27.30
19948;BMP180;10135;50.702;7.276;2022-08-19T10:47:56;99329.00;;;27.40
19948;BMP180;10135;50.702;7.276;2022-08-19T10:49:57;99325.00;;;27.40
19948;BMP180;10135;50.702;7.276;2022-08-19T10:52:16;99319.00;;;27.40
19948;BMP180;10135;50.702;7.276;2022-08-19T10:54:34;99317.00;;;27.50
19948;BMP180;10135;50.702;7.276;2022-08-19T10:56:53;99322.00;;;27.50
19948;BMP180;10135;50.702;7.276;2022-08-19T10:58:55;99320.00;;;27.50
19948;BMP180;10135;50.702;7.276;2022-08-19T11:00:58;99321.00;;;27.50
19948;BMP180;10135;50.702;7.276;2022-08-19T11:02:59;99318.00;;;27.60
19948;BMP180;10135;50.702;7.276;2022-08-19T11:05:00;99323.00;;;27.60
19948;BMP180;10135;50.702;7.276;2022-08-19T11:07:01;99314.00;;;27.70
19948;BMP180;10135;50.702;7.276;2022-08-19T11:09:04;99309.00;;;27.70
19948;BMP180;10135;50.702;7.276;2022-08-19T11:11:07;99315.00;;;27.70
19948;BMP180;10135;50.702;7.276;2022-08-19T11:13:08;99306.00;;;27.80
19948;BMP180;10135;50.702;7.276;2022-08-19T11:15:09;99305.00;;;27.80
19948;BMP180;10135;50.702;7.276;2022-08-19T11:17:11;99305.00;;;27.80
19948;BMP180;10135;50.702;7.276;2022-08-19T11:19:15;99300.00;;;27.80
19948;BMP180;10135;50.702;7.276;2022-08-19T11:21:31;99305.00;;;27.70
19948;BMP180;10135;50.702;7.276;2022-08-19T11:23:32;99299.00;;;27.80
19948;BMP180;10135;50.702;7.276;2022-08-19T11:25:33;99304.00;;;27.80
19948;BMP180;10135;50.702;7.276;2022-08-19T11:27:41;99299.00;;;27.80
19948;BMP180;10135;50.702;7.276;2022-08-19T11:29:43;99309.00;;;27.80
19948;BMP180;10135;50.702;7.276;2022-08-19T11:31:48;99296.00;;;27.90
19948;BMP180;10135;50.702;7.276;2022-08-19T11:33:49;99291.00;;;27.90
19948;BMP180;10135;50.702;7.276;2022-08-19T11:35:54;99298.00;;;28.00
19948;BMP180;10135;50.702;7.276;2022-08-19T11:37:54;99298.00;;;28.10
19948;BMP180;10135;50.702;7.276;2022-08-19T11:39:56;99293.00;;;28.10
19948;BMP180;10135;50.702;7.276;2022-08-19T11:42:00;99297.00;;;28.20
19948;BMP180;10135;50.702;7.276;2022-08-19T11:44:21;99295.00;;;28.30
19948;BMP180;10135;50.702;7.276;2022-08-19T11:46:27;99288.00;;;28.30
19948;BMP180;10135;50.702;7.276;2022-08-19T11:48:29;99290.00;;;28.30
19948;BMP180;10135;50.702;7.276;2022-08-19T11:50:30;99294.00;;;28.30
19948;BMP180;10135;50.702;7.276;2022-08-19T11:52:31;99298.00;;;28.30
19948;BMP180;10135;50.702;7.276;2022-08-19T11:54:31;99309.00;;;28.30
19948;BMP180;10135;50.702;7.276;2022-08-19T11:56:33;99292.00;;;28.40
19948;BMP180;10135;50.702;7.276;2022-08-19T11:58:34;99288.00;;;28.40